createdAt,value
2022-08-07T00:00:26.129Z,15.70
2022-08-07T00:02:53.566Z,15.40
2022-08-07T00:05:23.888Z,15.30
2022-08-07T00:08:00.247Z,16.20
2022-08-07T00:10:31.406Z,15.10
2022-08-07T00:13:23.443Z,16.20
2022-08-07T00:15:53.340Z,16.40
2022-08-07T00:18:27.182Z,17.00
2022-08-07T00:21:03.458Z,14.90
2022-08-07T00:23:39.518Z,15.50
2022-08-07T00:26:18.829Z,16.20
2022-08-07T00:28:59.052Z,14.70
2022-08-07T00:31:37.867Z,14.60
2022-08-07T00:34:08.949Z,14.60
2022-08-07T00:36:38.691Z,14.50
2022-08-07T00:39:16.666Z,14.50
2022-08-07T00:42:02.497Z,14.40
2022-08-07T00:44:33.678Z,15.30
2022-08-07T00:47:03.202Z,14.30
2022-08-07T00:50:20.892Z,14.30
2022-08-07T00:52:20.509Z,14.30
2022-08-07T00:54:53.384Z,14.20
2022-08-07T00:57:25.786Z,15.90
2022-08-07T00:59:54.288Z,16.10
2022-08-07T01:02:28.903Z,16.00
2022-08-07T01:04:59.360Z,16.40
2022-08-07T01:07:28.789Z,14.00
2022-08-07T01:10:06.689Z,14.00
2022-08-07T01:12:53.315Z,15.90
2022-08-07T01:16:01.258Z,13.90
2022-08-07T01:18:17.202Z,15.30
2022-08-07T01:20:57.512Z,13.80
2022-08-07T01:23:36.346Z,13.80
2022-08-07T01:26:11.807Z,16.60
2022-08-07T01:28:46.154Z,13.70
2022-08-07T01:31:22.112Z,16.20
2022-08-07T01:33:53.515Z,14.90
2022-08-07T01:36:33.666Z,13.60
2022-08-07T01:39:10.052Z,13.60
2022-08-07T01:42:01.642Z,14.10
2022-08-07T01:44:32.440Z,14.10
2022-08-07T01:47:01.120Z,13.50
2022-08-07T01:49:43.557Z,15.80
2022-08-07T01:52:12.457Z,13.40
2022-08-07T01:54:46.549Z,13.40
2022-08-07T01:57:24.905Z,13.50
2022-08-07T02:00:12.813Z,15.60
2022-08-07T02:03:18.786Z,13.40
2022-08-07T02:05:59.696Z,13.40
2022-08-07T02:08:40.960Z,13.40
2022-08-07T02:11:30.817Z,13.40
2022-08-07T02:14:04.678Z,14.60
2022-08-07T02:16:37.251Z,14.80
2022-08-07T02:20:04.606Z,13.40
2022-08-07T02:22:01.743Z,14.20
2022-08-07T02:24:30.719Z,14.40
2022-08-07T02:27:02.839Z,15.30
2022-08-07T02:29:35.673Z,13.40
2022-08-07T02:32:12.913Z,13.30
2022-08-07T02:34:48.837Z,14.40
2022-08-07T02:37:23.292Z,13.30
2022-08-07T02:40:02.538Z,13.30
2022-08-07T02:42:47.057Z,13.20
2022-08-07T02:46:00.364Z,13.60
2022-08-07T02:48:10.333Z,15.00
2022-08-07T02:50:48.702Z,14.40
2022-08-07T02:53:38.236Z,13.20
2022-08-07T02:56:17.588Z,13.40
2022-08-07T02:58:54.238Z,13.10
2022-08-07T03:01:35.370Z,13.10
2022-08-07T03:04:12.877Z,13.00
2022-08-07T03:06:48.557Z,14.70
2022-08-07T03:09:44.572Z,13.00
2022-08-07T03:12:21.798Z,14.70
2022-08-07T03:14:56.298Z,12.90
2022-08-07T03:17:24.647Z,14.20
2022-08-07T03:19:55.547Z,13.80
2022-08-07T03:22:29.520Z,13.90
2022-08-07T03:25:02.390Z,14.00
2022-08-07T03:27:58.695Z,12.80
2022-08-07T03:30:26.308Z,12.70
2022-08-07T03:32:58.742Z,12.70
2022-08-07T03:35:44.035Z,13.70
2022-08-07T03:38:20.920Z,12.60
2022-08-07T03:40:57.358Z,14.70
2022-08-07T03:43:32.354Z,14.90
2022-08-07T03:46:03.792Z,12.50
2022-08-07T03:48:45.487Z,13.40
2022-08-07T03:51:30.959Z,12.40
2022-08-07T03:54:35.457Z,12.40
2022-08-07T03:57:07.348Z,12.40
2022-08-07T03:59:36.877Z,12.30
2022-08-07T04:02:15.021Z,13.00
2022-08-07T04:04:43.222Z,12.30
2022-08-07T04:07:16.765Z,12.30
2022-08-07T04:09:50.291Z,12.30
2022-08-07T04:12:28.268Z,14.00
2022-08-07T04:15:00.259Z,12.20
2022-08-07T04:18:57.548Z,12.20
2022-08-07T04:20:19.497Z,12.30
2022-08-07T04:22:53.801Z,12.30
2022-08-07T04:25:35.799Z,14.20
2022-08-07T04:28:13.520Z,13.60
2022-08-07T04:30:55.426Z,12.30
2022-08-07T04:33:29.081Z,12.30
2022-08-07T04:35:59.092Z,12.30
2022-08-07T04:38:29.062Z,12.30
2022-08-07T04:40:57.766Z,12.40
2022-08-07T04:44:09.811Z,12.40
2022-08-07T04:46:35.968Z,12.40
2022-08-07T04:49:38.613Z,13.80
2022-08-07T04:52:46.817Z,12.50
2022-08-07T04:58:11.707Z,12.50
2022-08-07T04:59:16.911Z,12.60
2022-08-07T05:01:58.148Z,12.70
2022-08-07T05:04:51.103Z,12.80
2022-08-07T05:07:48.181Z,12.90
2022-08-07T05:10:27.071Z,12.90
2022-08-07T05:14:56.260Z,13.00
2022-08-07T05:16:10.333Z,13.10
2022-08-07T05:18:54.568Z,13.20
2022-08-07T05:21:59.941Z,13.30
2022-08-07T05:24:17.733Z,14.40
2022-08-07T05:26:49.567Z,14.60
2022-08-07T05:29:20.425Z,13.60
2022-08-07T05:31:51.204Z,13.60
2022-08-07T05:34:27.636Z,14.90
2022-08-07T05:36:57.520Z,15.70
2022-08-07T05:40:13.455Z,15.00
2022-08-07T05:42:33.736Z,14.70
2022-08-07T05:45:25.856Z,16.50
2022-08-07T05:48:01.459Z,14.40
2022-08-07T05:50:35.933Z,14.60
2022-08-07T05:53:07.075Z,14.70
2022-08-07T05:56:02.975Z,14.80
2022-08-07T05:58:36.208Z,15.00
2022-08-07T06:01:12.217Z,16.30
2022-08-07T06:03:58.771Z,15.90
2022-08-07T06:06:36.133Z,16.70
2022-08-07T06:09:06.660Z,17.10
2022-08-07T06:11:39.057Z,16.10
2022-08-07T06:14:13.593Z,17.30
2022-08-07T06:16:56.196Z,16.00
2022-08-07T06:19:51.922Z,16.20
2022-08-07T06:22:27.345Z,16.40
2022-08-07T06:25:10.161Z,16.50
2022-08-07T06:27:59.798Z,16.70
2022-08-07T06:30:35.699Z,16.90
2022-08-07T06:33:10.026Z,17.10
2022-08-07T06:35:47.629Z,19.50
2022-08-07T06:38:30.369Z,17.60
2022-08-07T06:41:02.343Z,19.00
2022-08-07T06:43:39.596Z,17.80
2022-08-07T06:46:15.899Z,17.90
2022-08-07T06:49:00.001Z,19.20
2022-08-07T06:51:49.665Z,16.30
2022-08-07T06:55:33.712Z,18.40
2022-08-07T06:57:10.067Z,18.50
2022-08-07T07:00:12.757Z,18.70
2022-08-07T07:02:54.613Z,18.90
2022-08-07T07:06:03.856Z,19.10
2022-08-07T07:08:18.444Z,19.20
2022-08-07T07:10:56.757Z,20.60
2022-08-07T07:13:43.674Z,19.60
2022-08-07T07:16:30.728Z,19.70
2022-08-07T07:19:54.848Z,19.90
2022-08-07T07:22:11.777Z,20.00
2022-08-07T07:24:58.553Z,21.60
2022-08-07T07:27:55.592Z,20.30
2022-08-07T07:30:39.751Z,22.10
2022-08-07T07:33:14.033Z,20.60
2022-08-07T07:36:03.925Z,20.70
2022-08-07T07:38:34.723Z,20.80
2022-08-07T07:41:08.624Z,21.00
2022-08-07T07:44:14.446Z,21.20
2022-08-07T07:46:54.469Z,21.40
2022-08-07T07:50:35.391Z,21.60
2022-08-07T07:52:16.144Z,21.80
2022-08-07T07:54:51.456Z,22.10
2022-08-07T07:57:51.593Z,23.80
2022-08-07T08:00:14.966Z,23.70
2022-08-07T08:03:05.303Z,22.90
2022-08-07T08:05:50.807Z,23.10
2022-08-07T08:08:34.463Z,24.50
2022-08-07T08:11:13.550Z,23.70
2022-08-07T08:13:55.482Z,23.80
2022-08-07T08:16:37.019Z,24.80
2022-08-07T08:20:15.999Z,24.20
2022-08-07T08:22:17.730Z,24.30
2022-08-07T08:25:24.876Z,25.90
2022-08-07T08:28:01.831Z,24.70
2022-08-07T08:30:34.638Z,24.80
2022-08-07T08:33:15.074Z,25.00
2022-08-07T08:35:50.073Z,25.10
2022-08-07T08:38:30.102Z,25.30
2022-08-07T08:41:25.414Z,25.40
2022-08-07T08:44:15.399Z,25.50
2022-08-07T08:47:21.013Z,25.60
2022-08-07T08:50:28.604Z,25.60
2022-08-07T08:53:33.403Z,25.70
2022-08-07T08:56:24.712Z,25.70
2022-08-07T08:59:29.205Z,25.70
2022-08-07T09:02:34.861Z,25.90
2022-08-07T09:05:43.299Z,25.90
2022-08-07T09:08:57.822Z,26.00
2022-08-07T09:11:53.550Z,26.20
2022-08-07T09:14:50.665Z,26.30
2022-08-07T09:17:59.698Z,26.30
2022-08-07T09:20:35.369Z,26.30
2022-08-07T09:24:31.343Z,26.30
2022-08-07T09:27:04.665Z,26.40
2022-08-07T09:30:09.046Z,26.40
2022-08-07T09:33:56.768Z,26.40
2022-08-07T09:37:06.073Z,26.60
2022-08-07T09:40:05.888Z,26.80
2022-08-07T09:44:05.237Z,27.00
2022-08-07T09:47:52.330Z,27.20
2022-08-07T09:50:31.452Z,27.40
2022-08-07T09:53:07.283Z,27.60
2022-08-07T09:56:04.486Z,28.40
2022-08-07T09:59:07.790Z,27.90
2022-08-07T10:02:29.606Z,28.10
2022-08-07T10:05:59.787Z,28.30
2022-08-07T10:09:05.267Z,28.50
2022-08-07T10:12:00.488Z,28.60
2022-08-07T10:15:01.073Z,28.70
2022-08-07T10:18:17.045Z,29.60
2022-08-07T10:22:14.137Z,28.90
2022-08-07T10:24:46.007Z,29.00
2022-08-07T10:27:20.914Z,29.00
2022-08-07T10:30:12.003Z,29.10
2022-08-07T10:34:04.893Z,29.10
2022-08-07T10:36:50.477Z,29.10
2022-08-07T10:40:12.656Z,29.20
2022-08-07T10:43:29.746Z,29.40
2022-08-07T10:46:13.476Z,29.70
2022-08-07T10:49:05.666Z,30.10
2022-08-07T10:52:12.892Z,30.40
2022-08-07T10:55:01.649Z,30.80
2022-08-07T10:58:05.399Z,33.20
2022-08-07T11:00:50.495Z,31.10
2022-08-07T11:03:54.952Z,31.10
2022-08-07T11:07:03.092Z,31.20
2022-08-07T11:10:09.537Z,31.50
2022-08-07T11:12:43.280Z,31.80
2022-08-07T11:15:21.895Z,32.30
2022-08-07T11:18:03.753Z,32.60
2022-08-07T11:20:53.576Z,32.50
2022-08-07T11:23:48.544Z,32.40
2022-08-07T11:26:50.028Z,32.30
2022-08-07T11:29:41.234Z,32.30
2022-08-07T11:32:33.159Z,32.40
2022-08-07T11:35:24.991Z,32.40
2022-08-07T11:38:21.370Z,32.40
2022-08-07T11:42:01.837Z,32.30
2022-08-07T11:44:52.523Z,32.20
2022-08-07T11:48:09.576Z,32.10
2022-08-07T11:51:41.699Z,31.90
2022-08-07T11:54:42.083Z,31.80
2022-08-07T11:58:01.571Z,31.80
2022-08-07T12:01:05.059Z,32.10
2022-08-07T12:04:22.839Z,32.60
2022-08-07T12:07:27.293Z,32.90
2022-08-07T12:10:07.655Z,33.10
2022-08-07T12:12:46.480Z,33.20
2022-08-07T12:15:35.747Z,33.10
2022-08-07T12:18:45.225Z,32.90
2022-08-07T12:22:37.822Z,32.60
2022-08-07T12:24:40.217Z,32.40
2022-08-07T12:27:28.014Z,32.20
2022-08-07T12:30:08.981Z,32.80
2022-08-07T12:33:18.909Z,32.20
2022-08-07T12:35:58.132Z,32.50
2022-08-07T12:38:42.785Z,32.80
2022-08-07T12:41:12.625Z,33.20
2022-08-07T12:44:03.011Z,32.80
2022-08-07T12:46:57.657Z,32.80
2022-08-07T12:50:39.081Z,32.80
2022-08-07T12:54:37.478Z,32.80
2022-08-07T12:56:51.322Z,33.10
2022-08-07T12:59:30.469Z,33.40
2022-08-07T13:02:15.661Z,33.60
2022-08-07T13:05:14.718Z,33.70
2022-08-07T13:08:25.818Z,33.70
2022-08-07T13:11:26.037Z,33.60
2022-08-07T13:14:25.538Z,33.40
2022-08-07T13:17:11.980Z,33.40
2022-08-07T13:20:02.840Z,33.40
2022-08-07T13:22:40.657Z,34.00
2022-08-07T13:25:39.346Z,34.10
2022-08-07T13:28:25.230Z,34.50
2022-08-07T13:31:13.564Z,34.80
2022-08-07T13:34:32.757Z,34.80
2022-08-07T13:37:20.600Z,34.80
2022-08-07T13:40:36.488Z,34.70
2022-08-07T13:43:11.853Z,34.50
2022-08-07T13:46:16.374Z,34.50
2022-08-07T13:48:38.703Z,34.70
2022-08-07T13:51:28.295Z,34.70
2022-08-07T13:54:05.852Z,34.90
2022-08-07T13:56:41.380Z,35.00
2022-08-07T13:59:27.489Z,35.00
2022-08-07T14:02:08.664Z,34.90
2022-08-07T14:04:54.467Z,34.70
2022-08-07T14:07:33.589Z,34.60
2022-08-07T14:10:15.672Z,34.40
2022-08-07T14:13:00.535Z,34.30
2022-08-07T14:15:41.863Z,34.20
2022-08-07T14:18:29.868Z,34.20
2022-08-07T14:21:11.752Z,34.60
2022-08-07T14:24:03.969Z,34.40
2022-08-07T14:26:39.171Z,34.50
2022-08-07T14:30:07.893Z,34.40
2022-08-07T14:32:12.322Z,35.70
2022-08-07T14:34:46.677Z,34.70
2022-08-07T14:37:18.354Z,34.30
2022-08-07T14:40:19.625Z,34.20
2022-08-07T14:43:55.876Z,34.10
2022-08-07T14:45:46.053Z,33.90
2022-08-07T14:48:19.741Z,33.80
2022-08-07T14:50:53.298Z,33.80
2022-08-07T14:54:03.591Z,33.90
2022-08-07T14:56:13.121Z,33.90
2022-08-07T14:58:54.140Z,34.20
2022-08-07T15:01:42.463Z,34.40
2022-08-07T15:04:14.090Z,34.50
2022-08-07T15:06:47.548Z,34.50
2022-08-07T15:15:21.165Z,34.50
2022-08-07T15:17:59.799Z,34.50
2022-08-07T15:20:55.333Z,34.50
2022-08-07T15:25:14.676Z,34.40
2022-08-07T15:26:28.938Z,34.40
2022-08-07T15:31:57.876Z,34.50
2022-08-07T15:34:35.289Z,34.80
2022-08-07T15:37:08.303Z,34.00
2022-08-07T15:39:56.530Z,34.40
2022-08-07T15:42:47.999Z,34.20
2022-08-07T15:48:29.789Z,33.70
2022-08-07T15:51:09.211Z,33.50
2022-08-07T15:53:53.024Z,33.30
2022-08-07T15:56:33.392Z,33.10
2022-08-07T15:59:07.560Z,32.90
2022-08-07T16:02:01.866Z,33.10
2022-08-07T16:04:35.859Z,32.40
2022-08-07T16:08:32.327Z,32.30
2022-08-07T16:10:14.238Z,32.30
2022-08-07T16:13:39.503Z,32.30
2022-08-07T16:16:48.206Z,32.30
2022-08-07T16:19:42.962Z,32.80
2022-08-07T16:22:56.575Z,32.40
2022-08-07T16:26:08.088Z,32.50
2022-08-07T16:29:18.898Z,32.60
2022-08-07T16:32:25.485Z,32.70
2022-08-07T16:35:56.662Z,32.90
2022-08-07T16:39:01.332Z,32.90
2022-08-07T16:42:16.426Z,33.10
2022-08-07T16:45:15.353Z,33.20
2022-08-07T16:49:04.400Z,33.20
2022-08-07T16:52:50.726Z,33.20
2022-08-07T16:55:47.242Z,33.00
2022-08-07T16:59:14.450Z,32.80
2022-08-07T17:01:55.708Z,32.60
2022-08-07T17:05:41.516Z,32.30
2022-08-07T17:08:02.004Z,32.20
2022-08-07T17:10:54.562Z,32.10
2022-08-07T17:14:19.081Z,32.00
2022-08-07T17:16:57.051Z,33.20
2022-08-07T17:20:03.060Z,31.60
2022-08-07T17:22:42.472Z,33.50
2022-08-07T17:25:51.106Z,31.30
2022-08-07T17:28:35.220Z,31.00
2022-08-07T17:31:15.601Z,30.60
2022-08-07T17:34:33.468Z,30.30
2022-08-07T17:38:06.707Z,30.00
2022-08-07T17:40:39.187Z,29.90
2022-08-07T17:43:18.987Z,29.60
2022-08-07T17:46:22.768Z,29.40
2022-08-07T17:49:22.931Z,29.30
2022-08-07T17:52:21.198Z,29.10
2022-08-07T17:55:12.827Z,29.00
2022-08-07T17:58:05.095Z,28.80
2022-08-07T18:00:49.116Z,28.60
2022-08-07T18:04:03.992Z,28.50
2022-08-07T18:07:02.855Z,28.40
2022-08-07T18:10:06.554Z,28.20
2022-08-07T18:12:49.403Z,28.10
2022-08-07T18:15:32.562Z,27.10
2022-08-07T18:18:45.959Z,28.80
2022-08-07T18:21:29.556Z,28.00
2022-08-07T18:24:33.177Z,27.90
2022-08-07T18:27:44.624Z,27.90
2022-08-07T18:30:32.573Z,27.80
2022-08-07T18:33:59.662Z,27.80
2022-08-07T18:37:09.714Z,27.70
2022-08-07T18:40:42.325Z,27.70
2022-08-07T18:43:49.228Z,27.50
2022-08-07T18:46:51.252Z,27.40
2022-08-07T18:50:31.746Z,27.20
2022-08-07T18:53:18.858Z,27.00
2022-08-07T18:56:12.498Z,26.70
2022-08-07T18:59:06.051Z,26.50
2022-08-07T19:02:33.049Z,26.30
2022-08-07T19:04:57.559Z,25.80
2022-08-07T19:07:51.664Z,25.50
2022-08-07T19:10:39.789Z,25.20
2022-08-07T19:13:49.986Z,25.00
2022-08-07T19:17:06.351Z,24.50
2022-08-07T19:20:30.199Z,24.60
2022-08-07T19:23:18.488Z,24.20
2022-08-07T19:26:23.504Z,23.60
2022-08-07T19:30:55.842Z,23.40
2022-08-07T19:32:17.025Z,23.20
2022-08-07T19:34:57.066Z,23.00
2022-08-07T19:37:25.265Z,25.20
2022-08-07T19:40:14.749Z,24.40
2022-08-07T19:42:44.918Z,22.40
2022-08-07T19:46:05.892Z,23.80
2022-08-07T19:48:18.097Z,22.20
2022-08-07T19:50:53.132Z,22.20
2022-08-07T19:54:33.035Z,24.80
2022-08-07T19:57:50.854Z,23.70
2022-08-07T19:59:02.507Z,21.60
2022-08-07T20:01:56.161Z,22.60
2022-08-07T20:04:37.416Z,21.80
2022-08-07T20:07:10.997Z,22.10
2022-08-07T20:10:37.126Z,21.40
2022-08-07T20:12:39.399Z,21.20
2022-08-07T20:15:22.448Z,21.50
2022-08-07T20:18:01.742Z,21.00
2022-08-07T20:20:35.996Z,21.20
2022-08-07T20:23:10.987Z,20.80
2022-08-07T20:26:10.210Z,20.70
2022-08-07T20:28:41.172Z,20.70
2022-08-07T20:31:21.856Z,20.60
2022-08-07T20:33:57.657Z,22.70
2022-08-07T20:36:31.485Z,20.40
2022-08-07T20:39:00.658Z,21.10
2022-08-07T20:41:38.396Z,21.30
2022-08-07T20:44:12.529Z,21.60
2022-08-07T20:46:44.086Z,20.10
2022-08-07T20:49:57.994Z,21.90
2022-08-07T20:52:14.214Z,20.00
2022-08-07T20:54:55.138Z,19.80
2022-08-07T20:57:28.178Z,19.90
2022-08-07T21:00:09.224Z,22.20
2022-08-07T21:02:58.080Z,19.70
2022-08-07T21:05:51.038Z,21.00
2022-08-07T21:08:37.708Z,19.60
2022-08-07T21:11:14.366Z,19.60
2022-08-07T21:14:30.028Z,19.60
2022-08-07T21:17:06.607Z,19.40
2022-08-07T21:19:51.636Z,19.40
2022-08-07T21:22:40.091Z,19.30
2022-08-07T21:25:42.672Z,19.20
2022-08-07T21:28:48.342Z,19.10
2022-08-07T21:31:49.956Z,19.10
2022-08-07T21:34:22.156Z,19.00
2022-08-07T21:37:14.109Z,18.90
2022-08-07T21:39:59.714Z,20.90
2022-08-07T21:42:54.535Z,18.80
2022-08-07T21:46:25.198Z,18.70
2022-08-07T21:49:14.593Z,18.60
2022-08-07T21:52:00.760Z,18.60
2022-08-07T21:55:05.666Z,18.30
2022-08-07T21:58:32.483Z,18.40
2022-08-07T22:02:10.449Z,18.40
2022-08-07T22:04:28.145Z,18.30
2022-08-07T22:07:06.666Z,18.20
2022-08-07T22:09:54.184Z,20.40
2022-08-07T22:12:31.653Z,18.20
2022-08-07T22:16:39.248Z,20.10
2022-08-07T22:18:10.828Z,18.60
2022-08-07T22:20:54.441Z,18.00
2022-08-07T22:23:42.777Z,18.90
2022-08-07T22:26:35.590Z,18.00
2022-08-07T22:29:37.854Z,17.90
2022-08-07T22:32:20.797Z,17.90
2022-08-07T22:35:00.456Z,17.90
2022-08-07T22:38:07.175Z,17.80
2022-08-07T22:40:54.623Z,17.80
2022-08-07T22:43:50.318Z,19.40
2022-08-07T22:47:14.979Z,20.00
2022-08-07T22:50:06.686Z,17.80
2022-08-07T22:53:17.299Z,17.80
2022-08-07T22:56:08.723Z,17.80
2022-08-07T22:59:18.350Z,17.70
2022-08-07T23:02:41.288Z,17.80
2022-08-07T23:06:09.378Z,18.50
2022-08-07T23:10:03.890Z,17.70
2022-08-07T23:12:09.643Z,17.70
2022-08-07T23:14:51.964Z,17.70
2022-08-07T23:17:55.980Z,19.40
2022-08-07T23:20:53.026Z,17.70
2022-08-07T23:24:05.966Z,19.60
2022-08-07T23:27:04.220Z,17.60
2022-08-07T23:30:37.469Z,18.80
2022-08-07T23:34:36.244Z,19.00
2022-08-07T23:36:44.093Z,17.50
2022-08-07T23:39:42.727Z,19.40
2022-08-07T23:42:59.390Z,17.40
2022-08-07T23:46:03.072Z,17.40
2022-08-07T23:49:49.835Z,17.30
2022-08-07T23:53:15.434Z,17.30
2022-08-07T23:56:01.462Z,17.30
2022-08-07T23:58:49.892Z,17.20
